Mountain, ND

4:40 PM CDT on September 03, 2015 (GMT -0500)
Cavalier | | Change Station
CLOSE
Current Station
Airport
Location: Cavalier,
Elevation: 892 ft
Nearby Weather Stations

Elev 892 ft 48.78 °N, 97.63 °W | Updated 5 minutes ago

Clear
Clear
91 °F
Feels Like 98 °F
N
17
Wind Variable Wind from SSE
Gusts 24 mph

Today
High -- | Low -- °F
--% Chance of Precip.
Yesterday
High -- | Low -- °F
Precip. -- in
6:50 AM 8:09 PM
Waning Gibbous, 66% visible
Pressure 29.67 in
Visibility 10.0 miles
Clouds Clear
Heat Index 98 °F
Dew Point 72 °F
Humidity 52%
Rainfall 0.00 in
Snow Depth Not available.
UV 4 out of 12
Pollen 11.70 out of 12
Air Quality Not available.
Flu Activity Not available.
METAR K2C8 032135Z AUTO 16015G21KT 10SM CLR 33/22 A2967 RMK AO2
Pressure 29.67 in
Visibility 10.0 miles
Clouds Clear
Heat Index 98 °F
Dew Point 72 °F
Humidity 52%
Rainfall 0.00 in
Snow Depth Not available.
UV 4 out of 12
Pollen 11.70 out of 12
Air Quality Not available.
Flu Activity Not available.
METAR K2C8 032135Z AUTO 16015G21KT 10SM CLR 33/22 A2967 RMK AO2

10-Day Weather Forecast

×

Almanac

Astronomy

Sep. 03, 2015 Rise Set
Actual Time
Civil Twilight
Nautical Twilight
Astronomical Twilight
Moon
Length of Visible Light
Length of Day
Tomorrow will be .
, % of the Moon is Illuminated

Today's Extremes

State Highs State Lows

Community

WunderPhotos

Upload Photos

1,852,045 photos uploaded!

WunderBlogs® & News

Nearby

Air Quality

  Air Quality AQ Index Pollutant
Not available.

Snow Depth

Station Depth Elevation

Earthquake Activity

City Distance Mag. Time & Date
Minimum magnitude displayed is 2.5.

Coastal Water Temperatures

Place Temperature

Stations

Nearby Weather Stations

Station Location Temp. Windchill Dew Point Humidity Wind Precip. Elev Updated Type